sensor_id;sensor_type;location;lat;lon;timestamp;P1;durP1;ratioP1;P2;durP2;ratioP2
84784;SDS011;75017;41.576;24.704;2024-02-28T00:01:23;18.85;;;7.28;;
84784;SDS011;75017;41.576;24.704;2024-02-28T00:03:49;11.57;;;6.72;;
84784;SDS011;75017;41.576;24.704;2024-02-28T00:06:17;13.35;;;6.82;;
84784;SDS011;75017;41.576;24.704;2024-02-28T00:08:43;12.70;;;6.45;;
84784;SDS011;75017;41.576;24.704;2024-02-28T00:11:09;13.73;;;6.93;;
84784;SDS011;75017;41.576;24.704;2024-02-28T00:13:34;13.63;;;6.95;;
84784;SDS011;75017;41.576;24.704;2024-02-28T00:16:00;14.60;;;6.65;;
84784;SDS011;75017;41.576;24.704;2024-02-28T00:18:25;10.18;;;5.78;;
84784;SDS011;75017;41.576;24.704;2024-02-28T00:20:51;11.88;;;6.47;;
84784;SDS011;75017;41.576;24.704;2024-02-28T00:23:16;12.02;;;5.68;;
84784;SDS011;75017;41.576;24.704;2024-02-28T00:25:42;12.82;;;6.07;;
84784;SDS011;75017;41.576;24.704;2024-02-28T00:28:07;13.30;;;6.57;;
84784;SDS011;75017;41.576;24.704;2024-02-28T00:30:33;11.13;;;5.38;;
84784;SDS011;75017;41.576;24.704;2024-02-28T00:32:59;10.48;;;5.28;;
84784;SDS011;75017;41.576;24.704;2024-02-28T00:35:25;11.50;;;4.90;;
84784;SDS011;75017;41.576;24.704;2024-02-28T00:37:51;13.02;;;5.72;;
84784;SDS011;75017;41.576;24.704;2024-02-28T00:40:16;10.63;;;4.82;;
84784;SDS011;75017;41.576;24.704;2024-02-28T00:42:42;13.18;;;5.18;;
84784;SDS011;75017;41.576;24.704;2024-02-28T00:45:08;11.40;;;5.10;;
84784;SDS011;75017;41.576;24.704;2024-02-28T00:47:34;11.68;;;4.97;;
84784;SDS011;75017;41.576;24.704;2024-02-28T00:50:00;10.07;;;4.53;;
84784;SDS011;75017;41.576;24.704;2024-02-28T00:52:28;11.35;;;5.35;;
84784;SDS011;75017;41.576;24.704;2024-02-28T00:54:54;10.43;;;4.97;;
84784;SDS011;75017;41.576;24.704;2024-02-28T00:57:19;8.10;;;4.40;;
84784;SDS011;75017;41.576;24.704;2024-02-28T00:59:45;7.18;;;3.65;;
84784;SDS011;75017;41.576;24.704;2024-02-28T01:02:10;7.85;;;4.03;;
84784;SDS011;75017;41.576;24.704;2024-02-28T01:04:36;8.05;;;3.15;;
84784;SDS011;75017;41.576;24.704;2024-02-28T01:07:01;7.25;;;4.25;;
84784;SDS011;75017;41.576;24.704;2024-02-28T01:09:27;7.72;;;3.83;;
84784;SDS011;75017;41.576;24.704;2024-02-28T01:11:52;9.98;;;5.45;;
84784;SDS011;75017;41.576;24.704;2024-02-28T01:14:18;9.43;;;4.50;;
84784;SDS011;75017;41.576;24.704;2024-02-28T01:16:43;6.82;;;3.63;;
84784;SDS011;75017;41.576;24.704;2024-02-28T01:19:09;10.15;;;4.88;;
84784;SDS011;75017;41.576;24.704;2024-02-28T01:21:34;8.70;;;4.50;;
84784;SDS011;75017;41.576;24.704;2024-02-28T01:24:00;6.60;;;3.15;;
84784;SDS011;75017;41.576;24.704;2024-02-28T01:26:25;6.38;;;3.38;;
84784;SDS011;75017;41.576;24.704;2024-02-28T01:28:51;7.13;;;3.42;;
84784;SDS011;75017;41.576;24.704;2024-02-28T01:31:16;10.40;;;4.90;;
84784;SDS011;75017;41.576;24.704;2024-02-28T01:33:42;11.70;;;5.20;;
84784;SDS011;75017;41.576;24.704;2024-02-28T01:36:07;10.45;;;5.28;;
84784;SDS011;75017;41.576;24.704;2024-02-28T01:38:33;10.32;;;5.63;;
84784;SDS011;75017;41.576;24.704;2024-02-28T01:40:58;13.60;;;5.50;;
84784;SDS011;75017;41.576;24.704;2024-02-28T01:43:24;10.65;;;5.50;;
84784;SDS011;75017;41.576;24.704;2024-02-28T01:45:49;10.05;;;3.97;;
84784;SDS011;75017;41.576;24.704;2024-02-28T01:48:15;5.63;;;3.10;;
84784;SDS011;75017;41.576;24.704;2024-02-28T01:50:41;9.38;;;4.65;;
84784;SDS011;75017;41.576;24.704;2024-02-28T01:53:07;12.77;;;5.18;;
84784;SDS011;75017;41.576;24.704;2024-02-28T01:55:37;12.18;;;5.30;;
84784;SDS011;75017;41.576;24.704;2024-02-28T01:58:03;9.25;;;3.53;;
84784;SDS011;75017;41.576;24.704;2024-02-28T02:00:32;8.77;;;4.03;;
84784;SDS011;75017;41.576;24.704;2024-02-28T02:02:59;10.60;;;4.43;;
84784;SDS011;75017;41.576;24.704;2024-02-28T02:05:28;7.78;;;3.88;;
84784;SDS011;75017;41.576;24.704;2024-02-28T02:07:54;7.20;;;4.28;;
84784;SDS011;75017;41.576;24.704;2024-02-28T02:10:20;9.40;;;4.80;;
84784;SDS011;75017;41.576;24.704;2024-02-28T02:12:46;12.10;;;4.95;;
84784;SDS011;75017;41.576;24.704;2024-02-28T02:15:11;7.25;;;3.58;;
84784;SDS011;75017;41.576;24.704;2024-02-28T02:17:37;8.05;;;4.32;;
84784;SDS011;75017;41.576;24.704;2024-02-28T02:20:02;11.77;;;5.97;;
84784;SDS011;75017;41.576;24.704;2024-02-28T02:22:34;18.23;;;6.85;;
84784;SDS011;75017;41.576;24.704;2024-02-28T02:25:03;12.95;;;5.88;;
84784;SDS011;75017;41.576;24.704;2024-02-28T02:27:29;9.23;;;5.05;;
84784;SDS011;75017;41.576;24.704;2024-02-28T02:29:54;11.95;;;5.85;;
84784;SDS011;75017;41.576;24.704;2024-02-28T02:32:20;10.25;;;4.80;;
84784;SDS011;75017;41.576;24.704;2024-02-28T02:34:45;12.13;;;5.50;;
84784;SDS011;75017;41.576;24.704;2024-02-28T02:37:11;12.38;;;7.22;;
84784;SDS011;75017;41.576;24.704;2024-02-28T02:39:37;8.15;;;5.45;;
84784;SDS011;75017;41.576;24.704;2024-02-28T02:42:02;10.93;;;6.10;;
84784;SDS011;75017;41.576;24.704;2024-02-28T02:44:28;14.82;;;6.55;;
84784;SDS011;75017;41.576;24.704;2024-02-28T02:46:53;12.43;;;6.22;;
84784;SDS011;75017;41.576;24.704;2024-02-28T02:49:19;10.68;;;5.47;;
84784;SDS011;75017;41.576;24.704;2024-02-28T02:51:44;12.98;;;7.00;;
84784;SDS011;75017;41.576;24.704;2024-02-28T02:54:10;14.75;;;6.20;;
84784;SDS011;75017;41.576;24.704;2024-02-28T02:56:36;12.52;;;6.90;;
84784;SDS011;75017;41.576;24.704;2024-02-28T02:59:01;19.30;;;7.63;;
84784;SDS011;75017;41.576;24.704;2024-02-28T03:01:27;8.35;;;3.30;;
84784;SDS011;75017;41.576;24.704;2024-02-28T03:03:53;13.05;;;5.47;;
84784;SDS011;75017;41.576;24.704;2024-02-28T03:06:19;16.02;;;6.35;;
84784;SDS011;75017;41.576;24.704;2024-02-28T03:08:44;19.23;;;7.72;;
84784;SDS011;75017;41.576;24.704;2024-02-28T03:11:10;15.57;;;7.15;;
84784;SDS011;75017;41.576;24.704;2024-02-28T03:13:36;18.02;;;8.35;;
84784;SDS011;75017;41.576;24.704;2024-02-28T03:16:05;24.30;;;10.30;;
84784;SDS011;75017;41.576;24.704;2024-02-28T03:18:31;15.00;;;8.32;;
84784;SDS011;75017;41.576;24.704;2024-02-28T03:20:57;13.85;;;6.82;;
84784;SDS011;75017;41.576;24.704;2024-02-28T03:23:22;13.75;;;6.57;;
84784;SDS011;75017;41.576;24.704;2024-02-28T03:25:48;12.88;;;5.97;;
84784;SDS011;75017;41.576;24.704;2024-02-28T03:28:13;10.85;;;4.40;;
84784;SDS011;75017;41.576;24.704;2024-02-28T03:30:39;10.32;;;4.45;;
84784;SDS011;75017;41.576;24.704;2024-02-28T03:33:04;10.55;;;4.50;;
84784;SDS011;75017;41.576;24.704;2024-02-28T03:35:30;8.90;;;5.28;;
84784;SDS011;75017;41.576;24.704;2024-02-28T03:37:56;12.82;;;6.80;;
84784;SDS011;75017;41.576;24.704;2024-02-28T03:40:21;6.80;;;3.83;;
84784;SDS011;75017;41.576;24.704;2024-02-28T03:42:47;8.95;;;4.55;;
84784;SDS011;75017;41.576;24.704;2024-02-28T03:45:12;9.77;;;4.85;;
84784;SDS011;75017;41.576;24.704;2024-02-28T03:47:38;8.52;;;4.65;;
84784;SDS011;75017;41.576;24.704;2024-02-28T03:50:04;10.93;;;5.35;;
84784;SDS011;75017;41.576;24.704;2024-02-28T03:52:30;13.48;;;6.35;;
84784;SDS011;75017;41.576;24.704;2024-02-28T03:54:56;14.40;;;7.80;;
84784;SDS011;75017;41.576;24.704;2024-02-28T03:57:22;11.35;;;6.53;;
84784;SDS011;75017;41.576;24.704;2024-02-28T03:59:47;16.27;;;7.60;;
84784;SDS011;75017;41.576;24.704;2024-02-28T04:02:13;14.07;;;6.75;;
84784;SDS011;75017;41.576;24.704;2024-02-28T04:04:38;12.10;;;6.68;;
84784;SDS011;75017;41.576;24.704;2024-02-28T04:07:04;18.67;;;11.73;;
84784;SDS011;75017;41.576;24.704;2024-02-28T04:09:29;18.55;;;9.85;;
84784;SDS011;75017;41.576;24.704;2024-02-28T04:11:55;15.52;;;9.32;;
84784;SDS011;75017;41.576;24.704;2024-02-28T04:14:20;16.75;;;9.52;;
84784;SDS011;75017;41.576;24.704;2024-02-28T04:16:46;39.22;;;15.20;;
84784;SDS011;75017;41.576;24.704;2024-02-28T04:19:12;30.52;;;14.80;;
84784;SDS011;75017;41.576;24.704;2024-02-28T04:21:38;31.23;;;14.45;;
84784;SDS011;75017;41.576;24.704;2024-02-28T04:24:04;23.50;;;11.73;;
84784;SDS011;75017;41.576;24.704;2024-02-28T04:26:31;26.27;;;12.20;;
84784;SDS011;75017;41.576;24.704;2024-02-28T04:28:56;27.35;;;12.98;;
84784;SDS011;75017;41.576;24.704;2024-02-28T04:31:22;30.02;;;13.25;;
84784;SDS011;75017;41.576;24.704;2024-02-28T04:33:48;17.73;;;8.38;;
84784;SDS011;75017;41.576;24.704;2024-02-28T04:36:13;21.05;;;9.35;;
84784;SDS011;75017;41.576;24.704;2024-02-28T04:38:41;21.38;;;11.13;;
84784;SDS011;75017;41.576;24.704;2024-02-28T04:41:06;24.90;;;12.07;;
84784;SDS011;75017;41.576;24.704;2024-02-28T04:43:32;25.80;;;12.57;;
84784;SDS011;75017;41.576;24.704;2024-02-28T04:45:57;32.53;;;14.20;;
84784;SDS011;75017;41.576;24.704;2024-02-28T04:48:23;23.63;;;12.40;;
84784;SDS011;75017;41.576;24.704;2024-02-28T04:50:48;24.15;;;11.63;;
84784;SDS011;75017;41.576;24.704;2024-02-28T04:53:14;23.13;;;13.60;;
84784;SDS011;75017;41.576;24.704;2024-02-28T04:55:39;26.42;;;14.55;;
84784;SDS011;75017;41.576;24.704;2024-02-28T04:58:05;35.60;;;20.65;;
84784;SDS011;75017;41.576;24.704;2024-02-28T05:00:30;27.08;;;14.48;;
84784;SDS011;75017;41.576;24.704;2024-02-28T05:02:56;25.00;;;14.13;;
84784;SDS011;75017;41.576;24.704;2024-02-28T05:05:21;22.40;;;9.82;;
84784;SDS011;75017;41.576;24.704;2024-02-28T05:07:47;20.67;;;11.73;;
84784;SDS011;75017;41.576;24.704;2024-02-28T05:10:12;23.40;;;12.35;;
84784;SDS011;75017;41.576;24.704;2024-02-28T05:12:37;25.23;;;14.32;;
84784;SDS011;75017;41.576;24.704;2024-02-28T05:15:03;32.60;;;16.33;;
84784;SDS011;75017;41.576;24.704;2024-02-28T05:17:31;39.67;;;19.45;;
84784;SDS011;75017;41.576;24.704;2024-02-28T05:19:57;38.65;;;18.10;;
84784;SDS011;75017;41.576;24.704;2024-02-28T05:22:22;36.17;;;20.27;;
84784;SDS011;75017;41.576;24.704;2024-02-28T05:24:48;42.88;;;24.35;;
84784;SDS011;75017;41.576;24.704;2024-02-28T05:27:14;34.45;;;17.73;;
84784;SDS011;75017;41.576;24.704;2024-02-28T05:29:39;34.92;;;18.73;;
84784;SDS011;75017;41.576;24.704;2024-02-28T05:32:06;34.08;;;19.15;;
84784;SDS011;75017;41.576;24.704;2024-02-28T05:34:32;41.65;;;22.05;;
84784;SDS011;75017;41.576;24.704;2024-02-28T05:36:58;43.67;;;22.35;;
84784;SDS011;75017;41.576;24.704;2024-02-28T05:39:26;38.10;;;20.15;;
84784;SDS011;75017;41.576;24.704;2024-02-28T05:41:54;41.88;;;21.35;;
84784;SDS011;75017;41.576;24.704;2024-02-28T05:44:20;45.13;;;20.42;;
84784;SDS011;75017;41.576;24.704;2024-02-28T05:49:20;68.30;;;27.45;;
84784;SDS011;75017;41.576;24.704;2024-02-28T05:51:47;42.70;;;22.98;;
84784;SDS011;75017;41.576;24.704;2024-02-28T05:54:13;56.45;;;28.75;;
84784;SDS011;75017;41.576;24.704;2024-02-28T05:56:38;59.45;;;33.10;;
84784;SDS011;75017;41.576;24.704;2024-02-28T05:59:04;50.22;;;26.63;;
84784;SDS011;75017;41.576;24.704;2024-02-28T06:01:29;44.42;;;21.95;;
84784;SDS011;75017;41.576;24.704;2024-02-28T06:03:55;35.03;;;19.15;;
84784;SDS011;75017;41.576;24.704;2024-02-28T06:06:20;34.47;;;21.63;;
84784;SDS011;75017;41.576;24.704;2024-02-28T06:08:46;49.72;;;26.65;;
84784;SDS011;75017;41.576;24.704;2024-02-28T06:11:11;48.70;;;26.15;;
84784;SDS011;75017;41.576;24.704;2024-02-28T06:13:39;50.65;;;25.67;;
84784;SDS011;75017;41.576;24.704;2024-02-28T06:18:31;50.93;;;26.70;;
84784;SDS011;75017;41.576;24.704;2024-02-28T06:20:58;51.15;;;25.95;;
84784;SDS011;75017;41.576;24.704;2024-02-28T06:23:25;49.55;;;25.58;;
84784;SDS011;75017;41.576;24.704;2024-02-28T06:25:51;24.80;;;16.80;;
84784;SDS011;75017;41.576;24.704;2024-02-28T06:28:16;30.05;;;15.52;;
84784;SDS011;75017;41.576;24.704;2024-02-28T06:30:42;34.55;;;20.85;;
84784;SDS011;75017;41.576;24.704;2024-02-28T06:33:11;41.65;;;23.80;;
84784;SDS011;75017;41.576;24.704;2024-02-28T06:35:37;59.22;;;34.85;;
84784;SDS011;75017;41.576;24.704;2024-02-28T06:38:02;51.47;;;29.20;;
84784;SDS011;75017;41.576;24.704;2024-02-28T06:40:28;43.50;;;24.17;;
84784;SDS011;75017;41.576;24.704;2024-02-28T06:42:54;48.25;;;31.00;;
84784;SDS011;75017;41.576;24.704;2024-02-28T06:45:19;44.47;;;26.23;;
84784;SDS011;75017;41.576;24.704;2024-02-28T06:47:45;41.47;;;21.95;;
84784;SDS011;75017;41.576;24.704;2024-02-28T06:50:11;42.17;;;21.70;;
84784;SDS011;75017;41.576;24.704;2024-02-28T06:52:37;35.45;;;21.85;;
84784;SDS011;75017;41.576;24.704;2024-02-28T06:55:03;24.55;;;14.57;;
84784;SDS011;75017;41.576;24.704;2024-02-28T06:57:35;23.10;;;15.68;;
84784;SDS011;75017;41.576;24.704;2024-02-28T07:00:05;32.30;;;18.20;;
84784;SDS011;75017;41.576;24.704;2024-02-28T07:02:36;24.65;;;13.32;;
84784;SDS011;75017;41.576;24.704;2024-02-28T07:05:02;32.78;;;20.50;;
84784;SDS011;75017;41.576;24.704;2024-02-28T07:07:29;27.95;;;15.13;;
84784;SDS011;75017;41.576;24.704;2024-02-28T07:09:58;25.73;;;15.73;;
84784;SDS011;75017;41.576;24.704;2024-02-28T07:12:24;28.77;;;15.95;;
84784;SDS011;75017;41.576;24.704;2024-02-28T07:14:50;25.83;;;14.85;;
84784;SDS011;75017;41.576;24.704;2024-02-28T07:17:16;25.15;;;15.30;;
84784;SDS011;75017;41.576;24.704;2024-02-28T07:19:41;21.75;;;11.43;;
84784;SDS011;75017;41.576;24.704;2024-02-28T07:22:07;27.08;;;11.48;;
84784;SDS011;75017;41.576;24.704;2024-02-28T07:24:32;25.33;;;12.32;;
84784;SDS011;75017;41.576;24.704;2024-02-28T07:26:58;31.70;;;14.55;;
84784;SDS011;75017;41.576;24.704;2024-02-28T07:29:23;21.98;;;13.88;;
84784;SDS011;75017;41.576;24.704;2024-02-28T07:31:49;26.08;;;13.63;;
84784;SDS011;75017;41.576;24.704;2024-02-28T07:34:15;23.42;;;14.38;;
84784;SDS011;75017;41.576;24.704;2024-02-28T07:36:40;29.08;;;14.82;;
84784;SDS011;75017;41.576;24.704;2024-02-28T07:39:06;33.20;;;16.95;;
84784;SDS011;75017;41.576;24.704;2024-02-28T07:41:34;22.35;;;12.95;;
84784;SDS011;75017;41.576;24.704;2024-02-28T07:43:59;20.38;;;11.20;;
84784;SDS011;75017;41.576;24.704;2024-02-28T07:46:25;20.50;;;9.13;;
84784;SDS011;75017;41.576;24.704;2024-02-28T07:48:51;20.20;;;10.88;;
84784;SDS011;75017;41.576;24.704;2024-02-28T07:51:16;19.77;;;10.07;;
84784;SDS011;75017;41.576;24.704;2024-02-28T07:53:42;23.65;;;14.93;;
84784;SDS011;75017;41.576;24.704;2024-02-28T07:56:15;24.17;;;11.23;;
84784;SDS011;75017;41.576;24.704;2024-02-28T07:58:41;23.75;;;11.77;;
84784;SDS011;75017;41.576;24.704;2024-02-28T08:01:06;22.23;;;12.43;;
84784;SDS011;75017;41.576;24.704;2024-02-28T08:03:33;21.20;;;10.20;;
84784;SDS011;75017;41.576;24.704;2024-02-28T08:05:58;16.60;;;10.23;;
84784;SDS011;75017;41.576;24.704;2024-02-28T08:08:24;20.88;;;13.02;;
84784;SDS011;75017;41.576;24.704;2024-02-28T08:10:49;18.40;;;11.07;;
84784;SDS011;75017;41.576;24.704;2024-02-28T08:13:16;23.02;;;10.40;;
84784;SDS011;75017;41.576;24.704;2024-02-28T08:15:42;25.52;;;11.02;;
84784;SDS011;75017;41.576;24.704;2024-02-28T08:18:07;16.73;;;10.15;;
84784;SDS011;75017;41.576;24.704;2024-02-28T08:20:33;13.55;;;7.13;;
84784;SDS011;75017;41.576;24.704;2024-02-28T08:22:58;6.03;;;4.13;;
84784;SDS011;75017;41.576;24.704;2024-02-28T08:25:25;9.68;;;3.70;;
84784;SDS011;75017;41.576;24.704;2024-02-28T08:27:50;11.25;;;6.25;;
84784;SDS011;75017;41.576;24.704;2024-02-28T08:30:16;17.95;;;9.18;;
84784;SDS011;75017;41.576;24.704;2024-02-28T08:32:41;8.88;;;4.28;;
84784;SDS011;75017;41.576;24.704;2024-02-28T08:35:08;10.98;;;4.30;;
84784;SDS011;75017;41.576;24.704;2024-02-28T08:37:34;9.77;;;3.20;;
84784;SDS011;75017;41.576;24.704;2024-02-28T08:39:59;16.75;;;5.32;;
84784;SDS011;75017;41.576;24.704;2024-02-28T08:42:25;9.93;;;3.50;;
84784;SDS011;75017;41.576;24.704;2024-02-28T08:44:51;3.50;;;1.35;;
84784;SDS011;75017;41.576;24.704;2024-02-28T08:47:17;5.40;;;1.50;;
84784;SDS011;75017;41.576;24.704;2024-02-28T08:49:44;5.35;;;1.90;;
84784;SDS011;75017;41.576;24.704;2024-02-28T08:52:09;5.75;;;1.70;;
84784;SDS011;75017;41.576;24.704;2024-02-28T08:54:35;10.15;;;3.55;;
84784;SDS011;75017;41.576;24.704;2024-02-28T08:57:00;4.47;;;2.17;;
84784;SDS011;75017;41.576;24.704;2024-02-28T08:59:26;3.88;;;1.20;;
84784;SDS011;75017;41.576;24.704;2024-02-28T09:01:51;4.85;;;2.00;;
84784;SDS011;75017;41.576;24.704;2024-02-28T09:04:17;3.10;;;1.48;;
84784;SDS011;75017;41.576;24.704;2024-02-28T09:06:42;1.65;;;1.10;;
84784;SDS011;75017;41.576;24.704;2024-02-28T09:09:08;10.63;;;4.60;;
84784;SDS011;75017;41.576;24.704;2024-02-28T09:11:33;2.67;;;1.10;;
84784;SDS011;75017;41.576;24.704;2024-02-28T09:13:59;5.20;;;2.03;;
84784;SDS011;75017;41.576;24.704;2024-02-28T09:16:24;2.17;;;1.33;;
84784;SDS011;75017;41.576;24.704;2024-02-28T09:18:50;3.33;;;1.13;;
84784;SDS011;75017;41.576;24.704;2024-02-28T09:21:15;5.57;;;1.23;;
84784;SDS011;75017;41.576;24.704;2024-02-28T09:23:41;3.88;;;2.00;;
84784;SDS011;75017;41.576;24.704;2024-02-28T09:26:06;6.18;;;1.95;;
84784;SDS011;75017;41.576;24.704;2024-02-28T09:28:32;5.03;;;1.88;;
84784;SDS011;75017;41.576;24.704;2024-02-28T09:30:58;3.80;;;1.23;;
84784;SDS011;75017;41.576;24.704;2024-02-28T09:33:24;4.90;;;1.48;;
84784;SDS011;75017;41.576;24.704;2024-02-28T09:35:49;2.08;;;0.77;;
84784;SDS011;75017;41.576;24.704;2024-02-28T09:38:15;5.32;;;2.42;;
84784;SDS011;75017;41.576;24.704;2024-02-28T09:40:40;4.82;;;1.63;;
84784;SDS011;75017;41.576;24.704;2024-02-28T09:43:14;6.38;;;1.95;;
84784;SDS011;75017;41.576;24.704;2024-02-28T09:45:43;4.97;;;2.83;;
84784;SDS011;75017;41.576;24.704;2024-02-28T09:48:09;6.03;;;2.88;;
84784;SDS011;75017;41.576;24.704;2024-02-28T09:50:36;10.30;;;3.03;;
84784;SDS011;75017;41.576;24.704;2024-02-28T09:53:03;5.47;;;3.30;;
84784;SDS011;75017;41.576;24.704;2024-02-28T09:55:29;23.20;;;6.75;;
84784;SDS011;75017;41.576;24.704;2024-02-28T09:57:54;12.48;;;4.00;;
84784;SDS011;75017;41.576;24.704;2024-02-28T10:00:21;7.95;;;1.83;;
84784;SDS011;75017;41.576;24.704;2024-02-28T10:02:48;7.30;;;2.00;;
84784;SDS011;75017;41.576;24.704;2024-02-28T10:05:16;6.25;;;1.83;;
84784;SDS011;75017;41.576;24.704;2024-02-28T10:07:44;11.32;;;2.40;;
84784;SDS011;75017;41.576;24.704;2024-02-28T10:10:10;5.53;;;1.73;;
84784;SDS011;75017;41.576;24.704;2024-02-28T10:12:40;4.35;;;1.20;;
84784;SDS011;75017;41.576;24.704;2024-02-28T10:15:06;2.63;;;1.38;;
84784;SDS011;75017;41.576;24.704;2024-02-28T10:17:32;7.90;;;2.00;;
84784;SDS011;75017;41.576;24.704;2024-02-28T10:19:58;5.53;;;1.25;;
84784;SDS011;75017;41.576;24.704;2024-02-28T10:22:24;3.13;;;1.10;;
84784;SDS011;75017;41.576;24.704;2024-02-28T10:24:56;1.92;;;1.58;;
84784;SDS011;75017;41.576;24.704;2024-02-28T10:27:23;9.02;;;6.32;;
84784;SDS011;75017;41.576;24.704;2024-02-28T10:29:48;4.93;;;1.83;;
84784;SDS011;75017;41.576;24.704;2024-02-28T10:32:13;6.03;;;1.88;;
84784;SDS011;75017;41.576;24.704;2024-02-28T10:34:39;4.88;;;1.63;;
84784;SDS011;75017;41.576;24.704;2024-02-28T10:37:06;5.72;;;2.83;;
84784;SDS011;75017;41.576;24.704;2024-02-28T10:39:32;8.70;;;1.60;;
84784;SDS011;75017;41.576;24.704;2024-02-28T10:41:59;3.85;;;1.30;;
84784;SDS011;75017;41.576;24.704;2024-02-28T10:44:26;6.40;;;3.00;;
84784;SDS011;75017;41.576;24.704;2024-02-28T10:46:52;10.18;;;4.72;;
84784;SDS011;75017;41.576;24.704;2024-02-28T10:49:19;4.03;;;1.80;;
84784;SDS011;75017;41.576;24.704;2024-02-28T10:51:48;3.80;;;1.35;;
84784;SDS011;75017;41.576;24.704;2024-02-28T10:54:15;8.57;;;2.50;;
84784;SDS011;75017;41.576;24.704;2024-02-28T10:56:43;5.47;;;1.92;;
84784;SDS011;75017;41.576;24.704;2024-02-28T10:59:09;4.65;;;2.05;;
84784;SDS011;75017;41.576;24.704;2024-02-28T11:01:38;5.05;;;1.40;;
84784;SDS011;75017;41.576;24.704;2024-02-28T11:04:08;5.40;;;2.20;;
84784;SDS011;75017;41.576;24.704;2024-02-28T11:06:35;2.55;;;1.02;;
84784;SDS011;75017;41.576;24.704;2024-02-28T11:09:00;6.85;;;2.13;;
84784;SDS011;75017;41.576;24.704;2024-02-28T11:11:31;1.90;;;0.85;;
84784;SDS011;75017;41.576;24.704;2024-02-28T11:13:58;4.20;;;1.45;;
84784;SDS011;75017;41.576;24.704;2024-02-28T11:16:32;3.13;;;1.60;;
84784;SDS011;75017;41.576;24.704;2024-02-28T11:18:59;5.07;;;1.90;;
84784;SDS011;75017;41.576;24.704;2024-02-28T11:21:26;6.47;;;2.20;;
84784;SDS011;75017;41.576;24.704;2024-02-28T11:23:56;4.32;;;1.98;;
84784;SDS011;75017;41.576;24.704;2024-02-28T11:26:23;2.72;;;1.45;;
84784;SDS011;75017;41.576;24.704;2024-02-28T11:28:49;5.85;;;2.35;;
84784;SDS011;75017;41.576;24.704;2024-02-28T11:31:15;3.78;;;1.60;;
84784;SDS011;75017;41.576;24.704;2024-02-28T11:33:41;4.32;;;2.25;;
84784;SDS011;75017;41.576;24.704;2024-02-28T11:36:07;7.57;;;2.70;;
84784;SDS011;75017;41.576;24.704;2024-02-28T11:38:34;3.65;;;1.45;;
84784;SDS011;75017;41.576;24.704;2024-02-28T11:41:03;2.53;;;1.42;;
84784;SDS011;75017;41.576;24.704;2024-02-28T11:43:32;3.83;;;1.70;;
84784;SDS011;75017;41.576;24.704;2024-02-28T11:45:59;4.25;;;1.98;;
84784;SDS011;75017;41.576;24.704;2024-02-28T11:48:25;3.97;;;2.20;;
84784;SDS011;75017;41.576;24.704;2024-02-28T11:50:53;4.93;;;1.83;;
84784;SDS011;75017;41.576;24.704;2024-02-28T11:53:18;6.93;;;2.38;;
84784;SDS011;75017;41.576;24.704;2024-02-28T11:55:47;2.80;;;1.85;;
84784;SDS011;75017;41.576;24.704;2024-02-28T11:58:14;3.55;;;1.73;;
84784;SDS011;75017;41.576;24.704;2024-02-28T12:00:49;3.92;;;1.83;;
84784;SDS011;75017;41.576;24.704;2024-02-28T12:03:22;8.43;;;2.25;;
84784;SDS011;75017;41.576;24.704;2024-02-28T12:05:49;2.45;;;1.80;;
84784;SDS011;75017;41.576;24.704;2024-02-28T12:08:18;6.80;;;2.15;;
84784;SDS011;75017;41.576;24.704;2024-02-28T12:10:48;3.88;;;1.77;;
84784;SDS011;75017;41.576;24.704;2024-02-28T12:13:19;3.78;;;1.83;;
84784;SDS011;75017;41.576;24.704;2024-02-28T12:15:47;7.40;;;1.80;;
84784;SDS011;75017;41.576;24.704;2024-02-28T12:18:16;3.58;;;1.83;;
84784;SDS011;75017;41.576;24.704;2024-02-28T12:23:07;3.10;;;1.40;;
84784;SDS011;75017;41.576;24.704;2024-02-28T12:25:33;3.95;;;1.60;;
84784;SDS011;75017;41.576;24.704;2024-02-28T12:28:00;3.35;;;1.70;;
84784;SDS011;75017;41.576;24.704;2024-02-28T12:30:26;6.00;;;1.67;;
84784;SDS011;75017;41.576;24.704;2024-02-28T12:32:52;5.97;;;2.55;;
84784;SDS011;75017;41.576;24.704;2024-02-28T12:35:17;5.43;;;2.42;;
84784;SDS011;75017;41.576;24.704;2024-02-28T12:37:43;3.88;;;1.92;;
84784;SDS011;75017;41.576;24.704;2024-02-28T12:40:08;7.47;;;3.63;;
84784;SDS011;75017;41.576;24.704;2024-02-28T12:42:34;3.80;;;2.25;;
84784;SDS011;75017;41.576;24.704;2024-02-28T12:45:01;4.43;;;1.70;;
84784;SDS011;75017;41.576;24.704;2024-02-28T12:47:27;6.30;;;2.15;;
84784;SDS011;75017;41.576;24.704;2024-02-28T12:49:55;3.13;;;2.00;;
84784;SDS011;75017;41.576;24.704;2024-02-28T12:52:21;6.28;;;2.25;;
84784;SDS011;75017;41.576;24.704;2024-02-28T12:54:46;7.03;;;2.53;;
84784;SDS011;75017;41.576;24.704;2024-02-28T12:57:12;3.38;;;1.63;;
84784;SDS011;75017;41.576;24.704;2024-02-28T12:59:41;2.95;;;1.75;;
84784;SDS011;75017;41.576;24.704;2024-02-28T13:02:07;3.85;;;2.47;;
84784;SDS011;75017;41.576;24.704;2024-02-28T13:04:34;6.40;;;2.85;;
84784;SDS011;75017;41.576;24.704;2024-02-28T13:07:00;6.00;;;2.03;;
84784;SDS011;75017;41.576;24.704;2024-02-28T13:09:25;5.63;;;1.98;;
84784;SDS011;75017;41.576;24.704;2024-02-28T13:11:51;4.80;;;2.53;;
84784;SDS011;75017;41.576;24.704;2024-02-28T13:14:17;7.38;;;2.70;;
84784;SDS011;75017;41.576;24.704;2024-02-28T13:16:43;3.50;;;2.05;;
84784;SDS011;75017;41.576;24.704;2024-02-28T13:19:09;5.05;;;2.03;;
84784;SDS011;75017;41.576;24.704;2024-02-28T13:21:35;4.32;;;1.90;;
84784;SDS011;75017;41.576;24.704;2024-02-28T13:24:02;3.92;;;2.15;;
84784;SDS011;75017;41.576;24.704;2024-02-28T13:26:28;5.93;;;2.38;;
84784;SDS011;75017;41.576;24.704;2024-02-28T13:28:54;7.25;;;3.10;;
84784;SDS011;75017;41.576;24.704;2024-02-28T13:31:19;7.32;;;2.95;;
84784;SDS011;75017;41.576;24.704;2024-02-28T13:33:45;6.20;;;2.85;;
84784;SDS011;75017;41.576;24.704;2024-02-28T13:36:13;6.55;;;3.03;;
84784;SDS011;75017;41.576;24.704;2024-02-28T13:38:38;7.60;;;3.58;;
84784;SDS011;75017;41.576;24.704;2024-02-28T13:41:04;8.65;;;3.65;;
84784;SDS011;75017;41.576;24.704;2024-02-28T13:43:30;6.28;;;2.67;;
84784;SDS011;75017;41.576;24.704;2024-02-28T13:45:56;7.60;;;4.03;;
84784;SDS011;75017;41.576;24.704;2024-02-28T13:48:25;9.57;;;5.22;;
84784;SDS011;75017;41.576;24.704;2024-02-28T13:50:56;9.35;;;3.17;;
84784;SDS011;75017;41.576;24.704;2024-02-28T13:53:22;12.77;;;5.63;;
84784;SDS011;75017;41.576;24.704;2024-02-28T13:55:48;7.32;;;3.33;;
84784;SDS011;75017;41.576;24.704;2024-02-28T13:58:14;7.72;;;3.92;;
84784;SDS011;75017;41.576;24.704;2024-02-28T14:00:43;7.07;;;3.55;;
84784;SDS011;75017;41.576;24.704;2024-02-28T14:03:10;4.22;;;2.67;;
84784;SDS011;75017;41.576;24.704;2024-02-28T14:05:36;9.05;;;3.80;;
84784;SDS011;75017;41.576;24.704;2024-02-28T14:08:02;5.72;;;3.40;;
84784;SDS011;75017;41.576;24.704;2024-02-28T14:10:33;4.90;;;2.90;;
84784;SDS011;75017;41.576;24.704;2024-02-28T14:12:59;5.22;;;3.25;;
84784;SDS011;75017;41.576;24.704;2024-02-28T14:15:25;5.60;;;2.50;;
84784;SDS011;75017;41.576;24.704;2024-02-28T14:17:50;5.45;;;2.85;;
84784;SDS011;75017;41.576;24.704;2024-02-28T14:20:16;6.28;;;3.10;;
84784;SDS011;75017;41.576;24.704;2024-02-28T14:22:42;5.28;;;2.60;;
84784;SDS011;75017;41.576;24.704;2024-02-28T14:25:11;7.88;;;3.17;;